Time;durP1;ratioP1;P1;durP2;ratioP2;P2;SDS_P1;SDS_P2;PMS_P1;PMS_P2;Temp;Humidity;BMP_temperature;BMP_pressure;BME280_temperature;BME280_humidity;BME280_pressure;Samples;Min_cycle;Max_cycle;Signal;HPM_P1;HPM_P2
2022/06/16 00:01:09;;;;;;;6.90;3.73;;;19.40;89.50;;;;;;5095926;28;20458;-39
2022/06/16 00:03:36;;;;;;;3.70;3.17;;;19.40;89.70;;;;;;5095815;28;20492;-36
2022/06/16 00:06:03;;;;;;;7.20;3.33;;;19.30;90.00;;;;;;5096104;28;20462;-35
2022/06/16 00:08:30;;;;;;;3.40;2.93;;;19.30;90.40;;;;;;5095886;28;20430;-35
2022/06/16 00:13:42;;;;;;;5.13;3.90;;;19.20;90.60;;;;;;5095536;28;20510;-40
2022/06/16 00:16:11;;;;;;;6.73;3.87;;;19.20;91.10;;;;;;5095726;28;20430;-37
2022/06/16 00:18:42;;;;;;;7.37;4.33;;;19.20;91.20;;;;;;5095417;28;20450;-36
2022/06/16 00:21:10;;;;;;;5.33;3.53;;;19.20;91.30;;;;;;5095573;28;20438;-37
2022/06/16 00:23:37;;;;;;;4.47;2.93;;;19.10;91.50;;;;;;5095817;28;20474;-36
2022/06/16 00:26:11;;;;;;;4.37;3.10;;;19.10;92.00;;;;;;5095532;28;20518;-40
2022/06/16 00:28:40;;;;;;;4.63;3.30;;;19.10;92.10;;;;;;5095614;28;20916;-36
2022/06/16 00:31:08;;;;;;;12.23;8.17;;;19.00;92.50;;;;;;5096219;28;20479;-37
2022/06/16 00:33:35;;;;;;;4.63;3.43;;;19.00;92.80;;;;;;5095270;28;20477;-34
2022/06/16 00:36:02;;;;;;;5.97;4.27;;;19.00;92.90;;;;;;5095522;28;20419;-40
2022/06/16 00:38:29;;;;;;;7.80;3.27;;;19.00;93.00;;;;;;5095556;28;20439;-36
2022/06/16 00:40:56;;;;;;;6.53;3.70;;;18.90;93.30;;;;;;5095520;28;20419;-38
2022/06/16 00:43:24;;;;;;;5.83;2.83;;;18.90;93.60;;;;;;5094603;28;20492;-37
2022/06/16 00:45:54;;;;;;;11.97;4.37;;;18.80;93.70;;;;;;5094484;28;20485;-35
2022/06/16 00:48:24;;;;;;;11.33;3.17;;;18.80;94.50;;;;;;5095422;28;20465;-37
2022/06/16 00:50:56;;;;;;;4.03;3.13;;;18.70;94.60;;;;;;5082055;28;20478;-38
2022/06/16 00:53:24;;;;;;;3.73;3.10;;;18.70;94.80;;;;;;5090923;28;20399;-38
2022/06/16 00:55:51;;;;;;;6.00;2.97;;;18.70;95.20;;;;;;5094833;28;20473;-37
2022/06/16 00:58:19;;;;;;;4.97;2.80;;;18.60;95.30;;;;;;5094787;28;20460;-41
2022/06/16 01:00:48;;;;;;;3.70;3.27;;;18.60;95.70;;;;;;5094918;28;20446;-37
2022/06/16 01:04:51;;;;;;;5.37;3.20;;;18.60;95.90;;;;;;5095074;28;20732;-37
2022/06/16 01:06:17;;;;;;;8.67;3.10;;;18.60;96.30;;;;;;5097239;28;20430;-37
2022/06/16 01:08:45;;;;;;;5.10;3.10;;;18.50;96.70;;;;;;5098679;28;20426;-38
2022/06/16 01:13:41;;;;;;;5.63;3.00;;;18.50;97.20;;;;;;5098996;28;20480;-38
2022/06/16 01:14:14;;;;;;;6.13;3.23;;;18.50;97.60;;;;;;5098747;28;20878;-41
2022/06/16 01:16:46;;;;;;;6.60;3.60;;;18.40;98.20;;;;;;5099594;28;20425;-41
2022/06/16 01:19:29;;;;;;;4.40;3.60;;;18.30;98.60;;;;;;5099104;28;20489;-37
2022/06/16 01:22:01;;;;;;;7.90;3.43;;;18.30;99.20;;;;;;5098785;28;20438;-49
2022/06/16 01:24:50;;;;;;;4.40;3.43;;;18.30;99.90;;;;;;5098352;28;20497;-36
2022/06/16 01:27:48;;;;;;;4.70;3.60;;;18.20;99.90;;;;;;5084715;28;20514;-37
2022/06/16 01:30:18;;;;;;;4.47;3.20;;;18.10;99.90;;;;;;5081995;28;20463;-35
2022/06/16 01:32:51;;;;;;;3.27;2.97;;;18.10;99.90;;;;;;5098494;28;20439;-35
2022/06/16 01:35:27;;;;;;;5.50;3.83;;;18.00;99.90;;;;;;5098287;28;20477;-41
2022/06/16 01:38:03;;;;;;;3.50;3.20;;;17.90;99.90;;;;;;5098522;28;20422;-35
2022/06/16 01:40:35;;;;;;;8.03;3.20;;;17.90;99.90;;;;;;5085081;28;20469;-35
2022/06/16 01:43:08;;;;;;;4.77;3.20;;;17.90;99.90;;;;;;5098371;28;20422;-40
2022/06/16 01:45:42;;;;;;;7.67;3.90;;;17.80;99.90;;;;;;5097675;28;20431;-38
2022/06/16 01:48:12;;;;;;;6.00;4.70;;;17.80;99.90;;;;;;5097912;28;20418;-38
2022/06/16 01:50:45;;;;;;;11.33;7.63;;;17.70;99.90;;;;;;5098888;28;20431;-37
2022/06/16 01:53:22;;;;;;;10.60;6.70;;;17.70;99.90;;;;;;5098624;28;20425;-43
2022/06/16 01:55:55;;;;;;;9.40;6.37;;;17.60;99.90;;;;;;5098786;28;20430;-40
2022/06/16 01:58:27;;;;;;;9.93;7.97;;;17.60;99.90;;;;;;5085316;28;20470;-36
2022/06/16 02:00:59;;;;;;;8.93;5.30;;;17.60;99.90;;;;;;5086937;28;20450;-38
2022/06/16 02:03:31;;;;;;;5.60;4.77;;;17.60;99.90;;;;;;5094189;28;20512;-37
2022/06/16 02:06:05;;;;;;;4.80;4.30;;;17.50;99.90;;;;;;5098293;28;20460;-37
2022/06/16 02:08:35;;;;;;;6.50;5.10;;;17.60;99.90;;;;;;5097661;28;20502;-36
2022/06/16 02:11:06;;;;;;;4.40;3.77;;;17.60;99.90;;;;;;5090370;28;20438;-38
2022/06/16 02:13:40;;;;;;;4.90;3.30;;;17.50;99.90;;;;;;5087581;28;20447;-37
2022/06/16 02:16:14;;;;;;;4.23;3.70;;;17.50;99.90;;;;;;5097108;28;20434;-38
2022/06/16 02:18:44;;;;;;;4.77;3.10;;;17.40;99.90;;;;;;5097379;28;20434;-36
2022/06/16 02:21:16;;;;;;;3.83;3.00;;;17.40;99.90;;;;;;5098184;28;20441;-37
2022/06/16 02:23:44;;;;;;;4.33;3.53;;;17.40;99.90;;;;;;5097952;28;20460;-36
2022/06/16 02:26:11;;;;;;;7.93;4.33;;;17.30;99.90;;;;;;5098583;28;20466;-38
2022/06/16 02:28:46;;;;;;;5.20;3.67;;;17.30;99.90;;;;;;5098034;28;20464;-36
2022/06/16 02:31:40;;;;;;;3.83;3.23;;;17.20;99.90;;;;;;5098020;28;20530;-37
2022/06/16 02:34:16;;;;;;;4.20;3.63;;;17.20;99.90;;;;;;5080579;28;20463;-38
2022/06/16 02:36:58;;;;;;;4.40;3.20;;;17.20;99.90;;;;;;5097984;28;20470;-36
2022/06/16 02:39:38;;;;;;;3.67;3.23;;;17.10;99.90;;;;;;5097369;28;20541;-37
2022/06/16 02:42:18;;;;;;;4.10;3.60;;;17.10;99.90;;;;;;5097400;28;20465;-36
2022/06/16 02:44:52;;;;;;;6.43;3.70;;;17.00;99.90;;;;;;5096957;28;20496;-37
2022/06/16 02:50:23;;;;;;;5.50;4.10;;;17.00;99.90;;;;;;5096720;28;20438;-37
2022/06/16 02:53:00;;;;;;;4.13;3.40;;;17.00;99.90;;;;;;5082572;28;20525;-37
2022/06/16 02:55:31;;;;;;;5.00;4.00;;;17.00;99.90;;;;;;5097152;28;20423;-37
2022/06/16 02:58:01;;;;;;;7.63;3.93;;;17.10;99.90;;;;;;5097425;28;20453;-46
2022/06/16 03:00:32;;;;;;;5.47;3.20;;;17.00;99.90;;;;;;5097752;28;20473;-39
2022/06/16 03:03:20;;;;;;;4.57;3.43;;;17.00;99.90;;;;;;5097912;28;20513;-42
2022/06/16 03:05:51;;;;;;;4.27;3.40;;;17.10;99.90;;;;;;5097610;28;20423;-40
2022/06/16 03:08:18;;;;;;;4.47;3.77;;;17.10;99.90;;;;;;5085922;28;20435;-39
2022/06/16 03:10:51;;;;;;;6.53;3.00;;;17.10;99.90;;;;;;5093615;28;20490;-37
2022/06/16 03:13:18;;;;;;;8.73;3.47;;;17.00;99.90;;;;;;5081127;28;20490;-39
2022/06/16 03:15:45;;;;;;;7.33;3.47;;;17.00;99.90;;;;;;5096407;28;20545;-39
2022/06/16 03:18:14;;;;;;;4.50;3.20;;;17.00;99.90;;;;;;5097179;28;20430;-36
2022/06/16 03:20:41;;;;;;;4.93;3.90;;;17.00;99.90;;;;;;5096938;28;20474;-37
2022/06/16 03:23:08;;;;;;;4.50;3.90;;;17.00;99.90;;;;;;5096738;28;20419;-37
2022/06/16 03:25:35;;;;;;;4.30;3.90;;;17.00;99.90;;;;;;5095889;28;20551;-36
2022/06/16 03:28:03;;;;;;;5.20;3.63;;;17.00;99.90;;;;;;5096482;28;20443;-36
2022/06/16 03:30:30;;;;;;;4.10;3.57;;;17.00;99.90;;;;;;5097265;28;20472;-35
2022/06/16 03:32:56;;;;;;;8.60;3.60;;;17.10;99.90;;;;;;5096645;28;20494;-43
2022/06/16 03:35:25;;;;;;;4.53;3.10;;;17.10;99.90;;;;;;5097403;28;20467;-36
2022/06/16 03:37:52;;;;;;;5.93;3.93;;;17.20;99.90;;;;;;5096964;28;20489;-37
2022/06/16 03:40:20;;;;;;;4.27;3.70;;;17.20;99.90;;;;;;5097214;28;20506;-39
2022/06/16 03:42:48;;;;;;;4.77;3.30;;;17.10;99.90;;;;;;5096372;28;20466;-38
2022/06/16 03:45:15;;;;;;;7.00;3.80;;;17.10;99.90;;;;;;5095667;28;20481;-37
2022/06/16 03:47:41;;;;;;;5.70;4.00;;;17.10;99.90;;;;;;5096438;28;20524;-37
2022/06/16 03:50:12;;;;;;;5.10;3.50;;;17.10;99.90;;;;;;5096248;28;20426;-37
2022/06/16 03:52:40;;;;;;;5.73;3.97;;;17.10;99.90;;;;;;5096456;28;20425;-35
2022/06/16 03:55:09;;;;;;;3.20;2.67;;;17.10;99.90;;;;;;5095828;28;20469;-40
2022/06/16 03:57:36;;;;;;;5.07;3.77;;;17.10;99.90;;;;;;5080476;28;20434;-37
2022/06/16 04:00:04;;;;;;;5.20;3.90;;;17.10;99.90;;;;;;5093239;28;20474;-37
2022/06/16 04:02:34;;;;;;;4.43;3.57;;;17.10;99.90;;;;;;5095617;28;20498;-36
2022/06/16 04:05:01;;;;;;;5.17;3.40;;;17.10;99.90;;;;;;5095853;28;20472;-36
2022/06/16 04:07:30;;;;;;;4.23;3.90;;;17.10;99.90;;;;;;5096237;28;20427;-37
2022/06/16 04:09:58;;;;;;;6.37;3.73;;;17.20;99.90;;;;;;5095691;28;20443;-37
2022/06/16 04:12:25;;;;;;;5.73;4.00;;;17.20;99.90;;;;;;5078978;28;20458;-38
2022/06/16 04:14:54;;;;;;;4.57;4.17;;;17.20;99.90;;;;;;5096416;28;20450;-38
2022/06/16 04:17:21;;;;;;;9.53;4.00;;;17.20;99.90;;;;;;5091752;28;20485;-40
2022/06/16 04:22:32;;;;;;;4.30;3.20;;;17.10;99.90;;;;;;5095181;28;20514;-36
2022/06/16 04:25:00;;;;;;;11.43;4.00;;;17.10;99.90;;;;;;5095430;28;20482;-45
2022/06/16 04:27:27;;;;;;;5.33;4.23;;;17.10;99.90;;;;;;5095543;28;20498;-37
2022/06/16 04:29:54;;;;;;;7.03;4.00;;;17.00;99.90;;;;;;5095504;28;20494;-36
2022/06/16 04:32:21;;;;;;;5.57;3.23;;;17.00;99.90;;;;;;5083158;28;20442;-44
2022/06/16 04:34:48;;;;;;;5.63;4.07;;;17.00;99.90;;;;;;5091460;28;20485;-38
2022/06/16 04:37:17;;;;;;;4.63;3.73;;;17.00;99.90;;;;;;5095557;28;20506;-37
2022/06/16 04:39:44;;;;;;;4.40;3.70;;;17.00;99.90;;;;;;5094930;28;20466;-36
2022/06/16 04:42:12;;;;;;;6.10;4.60;;;17.00;99.90;;;;;;5095241;28;20514;-34
2022/06/16 04:44:40;;;;;;;9.30;4.60;;;17.10;99.90;;;;;;5095802;28;20486;-37
2022/06/16 04:47:07;;;;;;;5.00;4.20;;;17.10;99.90;;;;;;5095765;28;20440;-36
2022/06/16 04:49:34;;;;;;;4.70;3.50;;;17.00;99.90;;;;;;5095937;28;20438;-42
2022/06/16 04:52:01;;;;;;;8.87;4.13;;;17.10;99.90;;;;;;5096327;28;20490;-38
2022/06/16 04:54:28;;;;;;;6.00;3.67;;;17.10;99.90;;;;;;5096303;28;20438;-38
2022/06/16 04:56:55;;;;;;;5.17;4.00;;;17.10;99.90;;;;;;5081068;28;20447;-38
2022/06/16 04:59:23;;;;;;;4.47;4.00;;;17.10;99.90;;;;;;5085489;28;21072;-36
2022/06/16 05:01:50;;;;;;;6.13;3.53;;;17.10;99.90;;;;;;5087401;28;20517;-35
2022/06/16 05:04:17;;;;;;;5.30;4.00;;;17.10;99.90;;;;;;5094680;28;20541;-37
2022/06/16 05:06:43;;;;;;;7.77;4.50;;;17.10;99.90;;;;;;5095119;28;20500;-38
2022/06/16 05:09:10;;;;;;;11.10;4.53;;;17.10;99.90;;;;;;5095333;28;20430;-43
2022/06/16 05:11:37;;;;;;;6.47;4.07;;;17.10;99.90;;;;;;5095757;28;20486;-39
2022/06/16 05:14:05;;;;;;;4.27;3.87;;;17.10;99.90;;;;;;5095945;28;20461;-38
2022/06/16 05:16:33;;;;;;;7.23;3.70;;;17.20;99.90;;;;;;5095747;28;20506;-38
2022/06/16 05:19:00;;;;;;;5.97;3.83;;;17.20;99.90;;;;;;5095075;28;20522;-36
2022/06/16 05:21:27;;;;;;;5.30;3.90;;;17.30;99.90;;;;;;5094654;28;20431;-37
2022/06/16 05:23:54;;;;;;;6.30;3.73;;;17.40;99.90;;;;;;5094779;28;20467;-38
2022/06/16 05:26:20;;;;;;;8.83;4.17;;;17.40;99.90;;;;;;5094547;28;20584;-38
2022/06/16 05:28:47;;;;;;;4.70;3.50;;;17.50;99.90;;;;;;5094912;28;20439;-39
2022/06/16 05:31:14;;;;;;;5.40;3.73;;;17.50;99.90;;;;;;5094822;28;20433;-37
2022/06/16 05:33:42;;;;;;;4.10;3.70;;;17.50;99.90;;;;;;5095363;28;20501;-37
2022/06/16 05:36:11;;;;;;;5.87;3.50;;;17.50;99.90;;;;;;5095228;28;20446;-36
2022/06/16 05:38:39;;;;;;;5.73;4.10;;;17.50;99.90;;;;;;5094997;28;20494;-35
2022/06/16 05:41:10;;;;;;;6.90;3.70;;;17.60;99.90;;;;;;5095247;28;20496;-37
2022/06/16 05:43:40;;;;;;;6.20;3.80;;;17.60;99.90;;;;;;5095318;28;20465;-37
2022/06/16 05:46:15;;;;;;;6.77;3.60;;;17.70;99.90;;;;;;5094960;28;20509;-45
2022/06/16 05:48:43;;;;;;;6.20;4.33;;;17.80;99.90;;;;;;5083791;28;20461;-38
2022/06/16 05:51:13;;;;;;;5.90;3.97;;;17.90;99.90;;;;;;5095340;28;20537;-36
2022/06/16 05:53:40;;;;;;;3.47;3.17;;;18.00;99.90;;;;;;5098802;28;20449;-38
2022/06/16 05:56:08;;;;;;;6.73;3.67;;;18.20;99.90;;;;;;5098579;28;20418;-39
2022/06/16 05:58:36;;;;;;;6.30;3.43;;;18.30;99.90;;;;;;5098675;28;20442;-37
2022/06/16 06:01:04;;;;;;;5.90;3.57;;;18.30;99.90;;;;;;5098203;28;20508;-36
2022/06/16 06:03:31;;;;;;;9.60;3.10;;;18.40;99.90;;;;;;5097386;28;20466;-37
2022/06/16 06:05:59;;;;;;;4.70;3.60;;;18.40;99.90;;;;;;5098394;28;20525;-34
2022/06/16 06:16:45;;;;;;;8.13;3.47;;;18.90;99.90;;;;;;5086959;28;20448;-38
2022/06/16 06:19:24;;;;;;;6.13;3.17;;;18.90;99.90;;;;;;5087171;28;20474;-37
2022/06/16 06:22:00;;;;;;;5.23;3.20;;;19.00;99.90;;;;;;5089348;28;20455;-40
2022/06/16 06:24:28;;;;;;;4.63;3.40;;;19.20;99.90;;;;;;5097878;28;20429;-38
2022/06/16 06:26:56;;;;;;;4.90;3.40;;;19.30;99.90;;;;;;5089530;28;20439;-38
2022/06/16 06:29:24;;;;;;;8.77;4.00;;;19.40;99.90;;;;;;5086472;28;20791;-40
2022/06/16 06:31:51;;;;;;;5.00;3.90;;;19.60;99.90;;;;;;5097051;28;20442;-38
2022/06/16 06:34:18;;;;;;;5.63;4.13;;;19.80;99.90;;;;;;5096538;28;20465;-37
2022/06/16 06:36:45;;;;;;;3.83;3.20;;;19.90;99.90;;;;;;5094626;28;20473;-39
2022/06/16 06:39:13;;;;;;;4.67;3.00;;;20.10;99.90;;;;;;5082907;28;20451;-39
2022/06/16 06:41:40;;;;;;;5.90;3.20;;;20.30;99.90;;;;;;5095828;28;20480;-39
2022/06/16 06:44:07;;;;;;;3.87;2.90;;;20.40;99.90;;;;;;5096900;28;20470;-38
2022/06/16 06:46:34;;;;;;;5.80;3.43;;;20.50;99.90;;;;;;5096121;28;20508;-37
2022/06/16 06:49:02;;;;;;;5.93;3.50;;;20.60;99.90;;;;;;5096941;28;20559;-37
2022/06/16 06:51:30;;;;;;;4.03;2.83;;;20.60;99.90;;;;;;5085052;28;20478;-39
2022/06/16 06:53:57;;;;;;;4.03;2.80;;;20.70;99.90;;;;;;5044839;28;20446;-37
2022/06/16 06:56:26;;;;;;;6.93;3.50;;;20.70;99.90;;;;;;5097891;28;20494;-39
2022/06/16 06:58:54;;;;;;;4.53;3.90;;;20.80;99.90;;;;;;5097386;28;20583;-36
2022/06/16 07:01:21;;;;;;;5.07;4.07;;;20.90;99.90;;;;;;5097084;28;20450;-40
2022/06/16 07:03:49;;;;;;;4.97;3.50;;;20.90;99.90;;;;;;5097317;28;20442;-36
2022/06/16 07:06:18;;;;;;;6.23;3.00;;;21.00;99.90;;;;;;5096602;28;20501;-39
2022/06/16 07:08:45;;;;;;;6.73;3.43;;;21.00;99.90;;;;;;5097479;28;20425;-44
2022/06/16 07:11:15;;;;;;;7.70;3.50;;;21.10;99.90;;;;;;5079307;28;20466;-42
2022/06/16 07:13:43;;;;;;;5.43;3.60;;;21.40;99.90;;;;;;5096072;28;20439;-40
2022/06/16 07:16:11;;;;;;;4.23;3.10;;;21.70;99.90;;;;;;5096077;28;20530;-37
2022/06/16 07:18:38;;;;;;;4.10;3.70;;;22.20;99.90;;;;;;5090411;28;20423;-38
2022/06/16 07:21:06;;;;;;;6.00;3.50;;;23.00;99.90;;;;;;5085381;28;20453;-40
2022/06/16 07:23:33;;;;;;;2.43;2.10;;;24.00;99.90;;;;;;5096495;28;20419;-37
2022/06/16 07:26:00;;;;;;;4.13;3.10;;;25.10;99.90;;;;;;5096350;28;20501;-37
2022/06/16 07:28:27;;;;;;;13.83;3.30;;;25.70;99.90;;;;;;5095677;28;20423;-37
2022/06/16 07:30:56;;;;;;;4.33;2.53;;;26.10;97.80;;;;;;5079361;28;20458;-38
2022/06/16 07:33:23;;;;;;;5.23;3.00;;;26.00;96.20;;;;;;5095104;28;20463;-35
2022/06/16 07:35:52;;;;;;;7.97;3.20;;;26.20;95.30;;;;;;5096478;28;20506;-37
2022/06/16 07:38:20;;;;;;;6.63;3.07;;;26.50;93.80;;;;;;5096432;28;20467;-38
2022/06/16 07:40:47;;;;;;;8.37;3.10;;;27.20;92.80;;;;;;5096560;28;20461;-42
2022/06/16 07:43:14;;;;;;;6.07;2.60;;;27.80;90.70;;;;;;5096245;28;20435;-47
2022/06/16 07:45:41;;;;;;;3.63;2.70;;;28.30;85.70;;;;;;5094725;28;20565;-43
2022/06/16 07:48:10;;;;;;;4.97;3.00;;;28.30;82.60;;;;;;5094851;28;20697;-39
2022/06/16 07:50:37;;;;;;;6.20;3.27;;;27.90;81.20;;;;;;5094553;28;20458;-44
2022/06/16 07:53:05;;;;;;;7.57;2.87;;;27.30;81.40;;;;;;5094413;28;20458;-39
2022/06/16 07:55:33;;;;;;;4.53;2.50;;;26.80;82.20;;;;;;5094159;28;20557;-37
2022/06/16 07:58:00;;;;;;;6.50;2.90;;;26.70;83.70;;;;;;5093186;28;20504;-37
2022/06/16 08:00:31;;;;;;;4.13;2.67;;;27.30;82.60;;;;;;5095376;28;20446;-38
2022/06/16 08:02:58;;;;;;;3.90;2.90;;;28.00;79.80;;;;;;5095448;28;20442;-38
2022/06/16 08:05:27;;;;;;;3.20;2.73;;;28.30;77.40;;;;;;5080927;28;20482;-39
2022/06/16 08:07:54;;;;;;;4.13;3.10;;;28.00;75.40;;;;;;5089974;28;20470;-36
2022/06/16 08:10:24;;;;;;;5.40;3.03;;;27.40;77.00;;;;;;5095722;28;20510;-37
2022/06/16 08:12:51;;;;;;;8.83;3.23;;;26.90;78.40;;;;;;5094817;28;20522;-39
2022/06/16 08:15:18;;;;;;;5.47;2.80;;;26.90;79.30;;;;;;5095083;28;20844;-39
2022/06/16 08:17:50;;;;;;;3.37;2.57;;;27.50;77.60;;;;;;5095547;28;20462;-39
2022/06/16 08:20:18;;;;;;;3.27;2.50;;;28.70;75.40;;;;;;5093288;28;20431;-39
2022/06/16 08:22:46;;;;;;;3.70;2.70;;;30.00;71.20;;;;;;5080052;28;20462;-40
2022/06/16 08:25:15;;;;;;;2.97;2.77;;;31.40;66.20;;;;;;5089743;28;20492;-36
2022/06/16 08:27:44;;;;;;;3.70;2.53;;;32.30;62.10;;;;;;5093463;28;20464;-38
2022/06/16 08:30:14;;;;;;;4.73;2.60;;;32.90;58.80;;;;;;5095002;28;20438;-39
2022/06/16 08:32:41;;;;;;;3.17;2.50;;;33.50;57.20;;;;;;5094475;28;20466;-40
2022/06/16 08:35:09;;;;;;;4.23;2.67;;;33.60;55.40;;;;;;5093720;28;20474;-38
2022/06/16 08:37:36;;;;;;;3.77;2.90;;;33.70;55.00;;;;;;5092742;28;20536;-39
2022/06/16 08:40:07;;;;;;;2.80;2.33;;;33.80;53.30;;;;;;5094400;28;20511;-38
2022/06/16 08:42:41;;;;;;;6.00;3.40;;;33.60;53.00;;;;;;5094341;28;20466;-37
2022/06/16 08:45:16;;;;;;;2.77;2.57;;;33.40;53.00;;;;;;5094228;28;20553;-38
2022/06/16 08:47:56;;;;;;;5.07;3.53;;;33.50;53.00;;;;;;5092819;28;20508;-38
2022/06/16 08:50:32;;;;;;;6.10;2.70;;;33.60;52.50;;;;;;5093420;28;20443;-40
2022/06/16 08:53:14;;;;;;;3.10;2.60;;;33.70;51.60;;;;;;5094280;28;20472;-44
2022/06/16 08:55:51;;;;;;;3.23;2.40;;;33.80;51.60;;;;;;5094381;28;20494;-40
2022/06/16 08:58:26;;;;;;;5.10;2.93;;;33.70;51.00;;;;;;5092549;28;20466;-37
2022/06/16 09:00:56;;;;;;;5.70;2.83;;;33.70;51.10;;;;;;5080846;28;20457;-39
2022/06/16 09:03:29;;;;;;;5.90;3.40;;;33.80;51.00;;;;;;5088201;28;20466;-37
2022/06/16 09:06:01;;;;;;;3.70;3.00;;;34.00;51.00;;;;;;5092825;28;20477;-38
2022/06/16 09:08:44;;;;;;;6.67;3.07;;;33.90;50.50;;;;;;5094793;28;20470;-38
2022/06/16 09:11:21;;;;;;;5.30;3.00;;;34.00;50.10;;;;;;5095074;28;20427;-40
2022/06/16 09:14:07;;;;;;;2.90;2.60;;;34.20;49.90;;;;;;5094305;28;20473;-38
2022/06/16 09:16:42;;;;;;;3.37;2.70;;;34.30;49.20;;;;;;5094418;28;20423;-45
2022/06/16 09:19:41;;;;;;;2.80;2.60;;;34.00;49.00;;;;;;5093754;28;20422;-37
2022/06/16 09:22:21;;;;;;;5.53;2.87;;;33.60;49.10;;;;;;5092711;28;20447;-41
2022/06/16 09:25:03;;;;;;;3.87;2.53;;;33.00;49.80;;;;;;5091921;28;20450;-39
2022/06/16 09:27:37;;;;;;;4.63;3.23;;;32.60;50.00;;;;;;5096047;28;20558;-44
2022/06/16 09:30:08;;;;;;;3.30;3.00;;;32.40;49.80;;;;;;5097251;28;20436;-41
2022/06/16 09:32:41;;;;;;;4.90;2.70;;;32.10;51.00;;;;;;5097863;28;20477;-38
2022/06/16 09:35:15;;;;;;;4.97;2.50;;;31.50;51.40;;;;;;5098620;28;20471;-36
2022/06/16 09:37:47;;;;;;;3.60;3.07;;;30.70;53.40;;;;;;5096709;28;20451;-37
2022/06/16 09:40:18;;;;;;;2.97;2.63;;;30.70;53.90;;;;;;5097300;28;20437;-44
2022/06/16 09:42:54;;;;;;;3.97;2.83;;;31.10;53.30;;;;;;5097385;28;20502;-37
2022/06/16 09:45:26;;;;;;;5.63;2.90;;;31.70;53.60;;;;;;5097518;28;20487;-36
2022/06/16 09:48:03;;;;;;;6.70;3.63;;;32.30;52.20;;;;;;5098126;28;20466;-38
2022/06/16 09:50:37;;;;;;;2.70;2.50;;;32.70;51.10;;;;;;5098181;28;20518;-39
2022/06/16 09:53:12;;;;;;;4.03;2.63;;;33.00;50.60;;;;;;5097626;28;20478;-38
2022/06/16 09:55:45;;;;;;;3.10;2.63;;;33.20;49.80;;;;;;5098547;28;20469;-40
2022/06/16 09:58:23;;;;;;;4.27;2.67;;;33.30;49.30;;;;;;5096938;28;20504;-39
2022/06/16 10:00:51;;;;;;;4.00;2.33;;;33.40;49.00;;;;;;5097363;28;20513;-36
2022/06/16 10:03:25;;;;;;;4.90;2.77;;;33.40;48.70;;;;;;5097558;28;20486;-38
2022/06/16 10:06:11;;;;;;;3.13;2.30;;;33.50;48.80;;;;;;5095469;28;20454;-37
2022/06/16 10:08:44;;;;;;;6.43;2.90;;;33.40;47.90;;;;;;5096392;28;20481;-37
2022/06/16 10:11:19;;;;;;;7.70;2.90;;;33.30;48.00;;;;;;5096177;28;20466;-39
2022/06/16 10:13:54;;;;;;;3.93;2.00;;;33.30;48.10;;;;;;5094662;28;20510;-42
2022/06/16 10:16:30;;;;;;;7.23;2.83;;;33.40;49.10;;;;;;5096771;28;20457;-38
2022/06/16 10:18:57;;;;;;;6.73;3.30;;;33.40;49.10;;;;;;5095821;28;20526;-37
2022/06/16 10:21:24;;;;;;;24.13;4.97;;;33.50;48.70;;;;;;5096918;28;20454;-38
2022/06/16 10:23:55;;;;;;;6.87;3.30;;;33.70;48.40;;;;;;5097145;28;20473;-36
2022/06/16 10:26:22;;;;;;;3.40;2.80;;;33.70;47.70;;;;;;5094846;28;20465;-38
2022/06/16 10:29:06;;;;;;;8.87;3.83;;;33.00;48.40;;;;;;5097558;28;20488;-36
2022/06/16 10:31:37;;;;;;;3.70;3.03;;;32.00;48.30;;;;;;5097029;28;20414;-38
2022/06/16 10:34:06;;;;;;;5.17;2.87;;;31.20;49.90;;;;;;5096085;28;20465;-39
2022/06/16 10:36:33;;;;;;;3.63;2.67;;;30.70;51.00;;;;;;5096274;28;20460;-39
2022/06/16 10:39:10;;;;;;;7.77;3.33;;;30.60;51.70;;;;;;5095417;28;20542;-40
2022/06/16 10:41:43;;;;;;;5.67;4.57;;;30.50;52.10;;;;;;5096015;28;20482;-39
2022/06/16 10:44:15;;;;;;;3.63;3.33;;;30.40;52.10;;;;;;5096571;28;20467;-36
2022/06/16 10:46:49;;;;;;;2.93;2.43;;;30.40;52.20;;;;;;5096195;28;20494;-37
2022/06/16 10:49:19;;;;;;;3.03;2.47;;;30.30;52.30;;;;;;5096402;28;20965;-36
2022/06/16 10:51:53;;;;;;;4.47;2.97;;;30.30;52.40;;;;;;5096731;28;20442;-37
2022/06/16 10:54:27;;;;;;;6.73;3.13;;;30.10;52.40;;;;;;5096719;28;20466;-38
2022/06/16 10:57:06;;;;;;;4.93;3.17;;;29.90;52.40;;;;;;5096971;28;20423;-37
2022/06/16 10:59:41;;;;;;;5.63;2.70;;;29.70;52.70;;;;;;5095606;28;20470;-37
2022/06/16 11:02:20;;;;;;;2.90;2.47;;;29.20;53.10;;;;;;5096478;28;20521;-37
2022/06/16 11:04:52;;;;;;;7.40;2.93;;;28.90;53.70;;;;;;5096839;28;20474;-37
2022/06/16 11:07:22;;;;;;;9.77;3.07;;;28.70;53.90;;;;;;5096385;28;20493;-39
2022/06/16 11:09:50;;;;;;;3.80;2.93;;;28.30;53.80;;;;;;5094746;28;20918;-41
2022/06/16 11:12:20;;;;;;;2.60;2.40;;;28.10;54.10;;;;;;5096152;28;20453;-40
2022/06/16 11:14:53;;;;;;;3.10;2.80;;;27.90;54.50;;;;;;5095652;28;20469;-38
2022/06/16 11:17:23;;;;;;;3.83;2.50;;;27.70;55.00;;;;;;5095568;28;20439;-36
2022/06/16 11:19:53;;;;;;;5.43;3.00;;;27.50;55.10;;;;;;5095020;28;20531;-35
2022/06/16 11:22:31;;;;;;;2.40;2.20;;;27.30;55.70;;;;;;5095699;28;20461;-39
2022/06/16 11:25:03;;;;;;;4.90;3.33;;;27.20;56.40;;;;;;5086097;28;20914;-38
2022/06/16 11:27:40;;;;;;;3.60;2.30;;;27.10;56.90;;;;;;5093853;28;20593;-38
2022/06/16 11:30:29;;;;;;;2.87;2.67;;;27.40;57.30;;;;;;5095998;28;20470;-36
2022/06/16 11:32:55;;;;;;;2.37;2.17;;;27.80;56.60;;;;;;5094587;28;20450;-39
2022/06/16 11:35:33;;;;;;;2.70;2.50;;;28.10;56.10;;;;;;5095105;28;20475;-38
2022/06/16 11:38:07;;;;;;;5.70;3.00;;;28.50;55.70;;;;;;5034937;28;20421;-40
2022/06/16 11:40:41;;;;;;;11.33;4.90;;;28.70;55.50;;;;;;5094788;28;20728;-37
2022/06/16 11:43:33;;;;;;;3.70;3.30;;;28.80;55.60;;;;;;5095430;28;20494;-38
2022/06/16 11:46:08;;;;;;;5.60;2.50;;;29.10;55.00;;;;;;5078397;28;20459;-39
2022/06/16 11:48:42;;;;;;;6.80;2.50;;;29.00;54.80;;;;;;5094983;28;20431;-35
2022/06/16 11:51:18;;;;;;;7.03;4.10;;;29.00;55.10;;;;;;5095913;28;20411;-41
2022/06/16 11:53:56;;;;;;;3.40;3.03;;;28.80;55.60;;;;;;5095097;28;20430;-40
2022/06/16 11:56:34;;;;;;;2.93;2.57;;;28.70;55.20;;;;;;5095819;28;20422;-38
2022/06/16 11:59:34;;;;;;;3.27;2.97;;;28.70;55.40;;;;;;5095303;28;20501;-38
2022/06/16 12:02:20;;;;;;;4.23;3.83;;;28.60;55.70;;;;;;5089451;28;20494;-39
2022/06/16 12:04:59;;;;;;;10.33;3.00;;;28.50;55.70;;;;;;5095111;28;20501;-38
2022/06/16 12:07:54;;;;;;;4.47;3.10;;;28.40;56.00;;;;;;5094196;28;20557;-38
2022/06/16 12:10:31;;;;;;;4.37;3.13;;;28.30;55.80;;;;;;5094620;28;20504;-39
2022/06/16 12:13:04;;;;;;;3.60;2.40;;;28.10;55.60;;;;;;5094138;28;20442;-39
2022/06/16 12:15:35;;;;;;;3.50;2.63;;;28.00;55.00;;;;;;5095451;28;20482;-38
2022/06/16 12:18:18;;;;;;;3.70;2.60;;;27.90;55.40;;;;;;5095209;28;20442;-39
2022/06/16 12:20:58;;;;;;;3.03;2.80;;;27.80;55.30;;;;;;5094135;28;20607;-39
2022/06/16 12:23:32;;;;;;;3.33;2.70;;;27.70;55.80;;;;;;5095560;28;20446;-37
2022/06/16 12:26:05;;;;;;;3.50;3.13;;;27.60;55.60;;;;;;5095359;28;20498;-37
2022/06/16 12:28:37;;;;;;;3.00;2.53;;;27.50;55.80;;;;;;5094891;28;20434;-37
2022/06/16 12:31:09;;;;;;;4.87;3.00;;;27.20;55.70;;;;;;5095761;28;20446;-38
2022/06/16 12:33:44;;;;;;;14.67;8.50;;;26.90;56.10;;;;;;5095086;28;20454;-39
2022/06/16 12:36:14;;;;;;;4.37;3.90;;;27.00;57.20;;;;;;5093616;28;20460;-38
2022/06/16 12:38:46;;;;;;;3.77;2.60;;;26.90;57.60;;;;;;5091699;28;20442;-39
2022/06/16 12:41:17;;;;;;;4.30;2.60;;;27.00;57.80;;;;;;5093988;28;20441;-38
2022/06/16 12:43:46;;;;;;;5.23;2.80;;;27.20;57.10;;;;;;5094320;28;20447;-38
2022/06/16 12:46:19;;;;;;;6.50;2.57;;;27.20;56.80;;;;;;5094201;28;20438;-38
2022/06/16 12:48:53;;;;;;;3.30;2.90;;;27.30;56.60;;;;;;5094553;28;20481;-37
2022/06/16 12:51:26;;;;;;;3.67;3.27;;;27.30;56.70;;;;;;5094133;28;20421;-36
2022/06/16 12:53:58;;;;;;;6.67;2.70;;;27.30;56.90;;;;;;5052380;28;20410;-38
2022/06/16 12:56:31;;;;;;;4.20;2.90;;;27.20;56.90;;;;;;5094844;28;20419;-38
2022/06/16 12:59:02;;;;;;;5.60;3.17;;;27.30;57.00;;;;;;5094170;28;20457;-36
2022/06/16 13:01:29;;;;;;;3.10;2.80;;;27.40;56.80;;;;;;5093279;28;20442;-38
2022/06/16 13:04:02;;;;;;;5.50;2.80;;;27.60;56.10;;;;;;5093127;28;20507;-35
2022/06/16 13:06:30;;;;;;;7.07;5.57;;;27.70;55.60;;;;;;5095327;28;20427;-38
2022/06/16 13:09:00;;;;;;;2.97;2.53;;;27.70;55.70;;;;;;5095039;28;20446;-37
2022/06/16 13:11:31;;;;;;;4.90;2.97;;;27.70;55.50;;;;;;5094967;28;20431;-36
2022/06/16 13:14:02;;;;;;;3.40;2.43;;;27.70;55.80;;;;;;5095046;28;20418;-36
2022/06/16 13:16:32;;;;;;;4.47;2.97;;;27.70;55.00;;;;;;5094547;28;20442;-40
2022/06/16 13:19:06;;;;;;;3.87;3.47;;;27.70;54.70;;;;;;5093776;28;20434;-41
2022/06/16 13:21:37;;;;;;;2.60;2.40;;;27.70;54.90;;;;;;5094144;28;20560;-41
2022/06/16 13:24:21;;;;;;;2.63;2.40;;;27.50;55.00;;;;;;5094350;28;20492;-38